sensor_id;sensor_type;location;lat;lon;timestamp;P1;durP1;ratioP1;P2;durP2;ratioP2
19137;SDS011;42546;52.188;5.598;2023-02-25T10:12:28;4.55;;;1.55;;
19137;SDS011;42546;52.188;5.598;2023-02-25T10:17:40;7.35;;;1.80;;
19137;SDS011;42546;52.188;5.598;2023-02-25T10:20:18;6.65;;;1.70;;
19137;SDS011;42546;52.188;5.598;2023-02-25T10:22:53;5.68;;;1.20;;
19137;SDS011;42546;52.188;5.598;2023-02-25T10:25:22;6.65;;;1.95;;
19137;SDS011;42546;52.188;5.598;2023-02-25T10:29:48;7.05;;;1.52;;
19137;SDS011;42546;52.188;5.598;2023-02-25T10:32:17;6.95;;;1.60;;
19137;SDS011;42546;52.188;5.598;2023-02-25T10:34:43;8.27;;;1.75;;
19137;SDS011;42546;52.188;5.598;2023-02-25T10:37:20;4.53;;;1.10;;
19137;SDS011;42546;52.188;5.598;2023-02-25T10:39:46;5.53;;;1.67;;
19137;SDS011;42546;52.188;5.598;2023-02-25T10:42:13;5.97;;;1.42;;
19137;SDS011;42546;52.188;5.598;2023-02-25T10:44:40;11.85;;;1.73;;
19137;SDS011;42546;52.188;5.598;2023-02-25T10:47:08;6.03;;;1.70;;
19137;SDS011;42546;52.188;5.598;2023-02-25T10:49:36;6.57;;;1.63;;
19137;SDS011;42546;52.188;5.598;2023-02-25T10:54:33;7.25;;;1.55;;
19137;SDS011;42546;52.188;5.598;2023-02-25T10:57:00;7.32;;;1.30;;
19137;SDS011;42546;52.188;5.598;2023-02-25T10:59:34;9.30;;;1.83;;
19137;SDS011;42546;52.188;5.598;2023-02-25T11:02:02;6.28;;;0.93;;
19137;SDS011;68178;52.188;5.598;2023-02-25T11:04:38;9.18;;;1.33;;
19137;SDS011;68178;52.188;5.598;2023-02-25T11:07:26;7.70;;;2.20;;
19137;SDS011;68178;52.188;5.598;2023-02-25T11:12:42;8.35;;;1.48;;
19137;SDS011;68178;52.188;5.598;2023-02-25T11:15:41;8.15;;;1.10;;
19137;SDS011;68178;52.188;5.598;2023-02-25T11:18:03;12.05;;;1.42;;
19137;SDS011;68178;52.188;5.598;2023-02-25T11:20:30;12.95;;;1.92;;
19137;SDS011;68178;52.188;5.598;2023-02-25T11:22:57;10.55;;;1.65;;
19137;SDS011;68178;52.188;5.598;2023-02-25T11:25:36;7.43;;;1.48;;
19137;SDS011;68178;52.188;5.598;2023-02-25T11:28:04;5.32;;;1.65;;
19137;SDS011;68178;52.188;5.598;2023-02-25T11:30:35;8.20;;;1.70;;
19137;SDS011;68178;52.188;5.598;2023-02-25T11:33:03;9.25;;;2.33;;
19137;SDS011;68178;52.188;5.598;2023-02-25T11:35:32;6.65;;;1.70;;
19137;SDS011;68178;52.188;5.598;2023-02-25T11:38:11;10.20;;;2.25;;
19137;SDS011;68178;52.188;5.598;2023-02-25T11:40:42;7.88;;;1.33;;
19137;SDS011;68178;52.188;5.598;2023-02-25T11:43:24;7.20;;;1.50;;
19137;SDS011;68178;52.188;5.598;2023-02-25T11:45:54;7.07;;;1.73;;
19137;SDS011;68178;52.188;5.598;2023-02-25T11:58:30;10.82;;;1.80;;
19137;SDS011;68178;52.188;5.598;2023-02-25T12:01:12;11.95;;;3.03;;
19137;SDS011;68178;52.188;5.598;2023-02-25T12:03:50;6.13;;;1.58;;
19137;SDS011;68178;52.188;5.598;2023-02-25T12:06:38;6.90;;;1.48;;
19137;SDS011;68178;52.188;5.598;2023-02-25T12:12:07;6.28;;;1.20;;
19137;SDS011;68178;52.188;5.598;2023-02-25T12:51:26;7.82;;;1.83;;
19137;SDS011;68178;52.188;5.598;2023-02-25T13:12:32;7.93;;;2.03;;
19137;SDS011;68178;52.188;5.598;2023-02-25T13:20:28;8.13;;;1.98;;
19137;SDS011;68178;52.188;5.598;2023-02-25T13:25:50;8.63;;;2.33;;
19137;SDS011;68178;52.188;5.598;2023-02-25T13:31:04;7.95;;;2.10;;
19137;SDS011;68178;52.188;5.598;2023-02-25T13:36:24;8.32;;;1.80;;
19137;SDS011;68178;52.188;5.598;2023-02-25T13:44:36;9.55;;;2.35;;
19137;SDS011;68178;52.188;5.598;2023-02-25T13:57:49;6.63;;;1.52;;
19137;SDS011;68178;52.188;5.598;2023-02-25T14:02:53;5.10;;;1.50;;
19137;SDS011;68178;52.188;5.598;2023-02-25T14:05:33;4.50;;;1.70;;
19137;SDS011;68178;52.188;5.598;2023-02-25T14:08:13;4.82;;;1.98;;
19137;SDS011;68178;52.188;5.598;2023-02-25T14:18:35;5.65;;;1.70;;
19137;SDS011;68178;52.188;5.598;2023-02-25T14:24:11;5.32;;;1.50;;
19137;SDS011;68178;52.188;5.598;2023-02-25T14:29:17;4.95;;;1.63;;
19137;SDS011;68178;52.188;5.598;2023-02-25T14:31:55;5.43;;;2.22;;
19137;SDS011;68178;52.188;5.598;2023-02-25T14:40:02;6.28;;;2.22;;
19137;SDS011;68178;52.188;5.598;2023-02-25T14:47:47;2.90;;;1.38;;
19137;SDS011;68178;52.188;5.598;2023-02-25T14:50:23;8.52;;;2.10;;
19137;SDS011;68178;52.188;5.598;2023-02-25T14:52:57;4.72;;;1.25;;
19137;SDS011;68178;52.188;5.598;2023-02-25T15:08:42;5.55;;;1.08;;
19137;SDS011;68178;52.188;5.598;2023-02-25T15:16:40;5.68;;;1.23;;
19137;SDS011;68178;52.188;5.598;2023-02-25T15:21:46;5.68;;;1.52;;
19137;SDS011;68178;52.188;5.598;2023-02-25T15:26:52;5.53;;;1.52;;
19137;SDS011;68178;52.188;5.598;2023-02-25T15:32:09;5.43;;;1.60;;
19137;SDS011;68178;52.188;5.598;2023-02-25T15:34:36;2.85;;;1.25;;
19137;SDS011;68178;52.188;5.598;2023-02-25T15:37:16;7.43;;;1.83;;
19137;SDS011;68178;52.188;5.598;2023-02-25T15:42:09;4.97;;;2.70;;
19137;SDS011;68178;52.188;5.598;2023-02-25T15:44:37;6.13;;;1.50;;
19137;SDS011;68178;52.188;5.598;2023-02-25T15:47:09;5.07;;;2.10;;
19137;SDS011;68178;52.188;5.598;2023-02-25T15:49:36;6.47;;;1.80;;
19137;SDS011;68178;52.188;5.598;2023-02-25T15:52:03;7.57;;;1.70;;
19137;SDS011;68178;52.188;5.598;2023-02-25T16:07:38;7.55;;;1.77;;
19137;SDS011;68178;52.188;5.598;2023-02-25T16:10:15;4.75;;;1.35;;
19137;SDS011;68178;52.188;5.598;2023-02-25T16:12:44;3.30;;;1.40;;
19137;SDS011;68178;52.188;5.598;2023-02-25T16:15:33;4.47;;;1.33;;
19137;SDS011;68178;52.188;5.598;2023-02-25T16:20:46;6.80;;;1.40;;
19137;SDS011;68178;52.188;5.598;2023-02-25T16:23:13;6.47;;;1.60;;
19137;SDS011;68178;52.188;5.598;2023-02-25T16:28:18;8.02;;;2.05;;
19137;SDS011;68178;52.188;5.598;2023-02-25T16:30:48;7.05;;;1.83;;
19137;SDS011;68178;52.188;5.598;2023-02-25T16:33:28;8.70;;;1.45;;
19137;SDS011;68178;52.188;5.598;2023-02-25T16:35:59;6.38;;;1.42;;
19137;SDS011;68178;52.188;5.598;2023-02-25T16:38:36;9.18;;;2.22;;
19137;SDS011;68178;52.188;5.598;2023-02-25T16:41:03;7.18;;;1.98;;
19137;SDS011;68178;52.188;5.598;2023-02-25T16:43:31;11.85;;;3.20;;
19137;SDS011;68178;52.188;5.598;2023-02-25T16:46:01;9.93;;;2.67;;
19137;SDS011;68178;52.188;5.598;2023-02-25T16:53:52;7.40;;;1.20;;
19137;SDS011;68178;52.188;5.598;2023-02-25T16:56:20;6.00;;;1.25;;
19137;SDS011;68178;52.188;5.598;2023-02-25T16:59:14;7.03;;;1.65;;
19137;SDS011;68178;52.188;5.598;2023-02-25T17:01:54;6.28;;;1.30;;
19137;SDS011;68178;52.188;5.598;2023-02-25T17:04:40;4.72;;;1.33;;
19137;SDS011;68178;52.188;5.598;2023-02-25T17:07:16;9.88;;;1.17;;
19137;SDS011;68178;52.188;5.598;2023-02-25T17:12:11;4.95;;;1.50;;
19137;SDS011;68178;52.188;5.598;2023-02-25T17:14:38;6.93;;;1.17;;
19137;SDS011;68178;52.188;5.598;2023-02-25T17:17:13;4.65;;;1.08;;
19137;SDS011;68178;52.188;5.598;2023-02-25T17:19:39;9.40;;;1.65;;
19137;SDS011;68178;52.188;5.598;2023-02-25T17:22:05;4.95;;;1.60;;
19137;SDS011;68178;52.188;5.598;2023-02-25T17:24:31;8.85;;;2.80;;
19137;SDS011;68178;52.188;5.598;2023-02-25T17:26:57;5.97;;;2.58;;
19137;SDS011;68178;52.188;5.598;2023-02-25T17:29:34;6.47;;;2.03;;
19137;SDS011;68178;52.188;5.598;2023-02-25T17:32:10;6.80;;;1.73;;
19137;SDS011;68178;52.188;5.598;2023-02-25T17:34:36;5.75;;;1.40;;
19137;SDS011;68178;52.188;5.598;2023-02-25T17:37:06;7.63;;;1.58;;
19137;SDS011;68178;52.188;5.598;2023-02-25T17:39:33;7.72;;;1.63;;
19137;SDS011;68178;52.188;5.598;2023-02-25T17:41:59;6.97;;;1.73;;
19137;SDS011;68178;52.188;5.598;2023-02-25T17:47:01;8.77;;;2.45;;
19137;SDS011;68178;52.188;5.598;2023-02-25T17:51:54;9.60;;;2.25;;
19137;SDS011;68178;52.188;5.598;2023-02-25T17:54:21;4.68;;;1.67;;
19137;SDS011;68178;52.188;5.598;2023-02-25T17:57:07;5.55;;;1.73;;
19137;SDS011;68178;52.188;5.598;2023-02-25T17:59:35;10.32;;;1.95;;
19137;SDS011;68178;52.188;5.598;2023-02-25T18:02:23;8.13;;;2.58;;
19137;SDS011;68178;52.188;5.598;2023-02-25T18:04:48;8.93;;;2.50;;
19137;SDS011;68178;52.188;5.598;2023-02-25T18:07:23;11.02;;;3.60;;
19137;SDS011;68178;52.188;5.598;2023-02-25T18:09:54;12.50;;;3.85;;
19137;SDS011;68178;52.188;5.598;2023-02-25T18:12:27;5.95;;;2.15;;
19137;SDS011;68178;52.188;5.598;2023-02-25T18:14:57;10.13;;;2.47;;
19137;SDS011;68178;52.188;5.598;2023-02-25T18:17:33;7.32;;;1.58;;
19137;SDS011;68178;52.188;5.598;2023-02-25T18:20:03;7.22;;;1.63;;
19137;SDS011;68178;52.188;5.598;2023-02-25T18:24:59;4.13;;;2.15;;
19137;SDS011;68178;52.188;5.598;2023-02-25T18:27:27;6.80;;;2.28;;
19137;SDS011;68178;52.188;5.598;2023-02-25T18:30:13;8.73;;;2.33;;
19137;SDS011;68178;52.188;5.598;2023-02-25T18:32:42;5.38;;;2.05;;
19137;SDS011;68178;52.188;5.598;2023-02-25T18:35:07;12.68;;;2.47;;
19137;SDS011;68178;52.188;5.598;2023-02-25T18:37:34;6.40;;;1.80;;
19137;SDS011;68178;52.188;5.598;2023-02-25T18:40:00;9.65;;;1.70;;
19137;SDS011;68178;52.188;5.598;2023-02-25T18:42:26;3.47;;;1.60;;
19137;SDS011;68178;52.188;5.598;2023-02-25T18:44:52;6.40;;;2.05;;
19137;SDS011;68178;52.188;5.598;2023-02-25T18:47:18;8.52;;;2.22;;
19137;SDS011;68178;52.188;5.598;2023-02-25T18:49:43;10.07;;;2.30;;
19137;SDS011;68178;52.188;5.598;2023-02-25T18:52:11;8.68;;;1.88;;
19137;SDS011;68178;52.188;5.598;2023-02-25T18:54:38;8.60;;;1.55;;
19137;SDS011;68178;52.188;5.598;2023-02-25T18:57:09;8.30;;;1.88;;
19137;SDS011;68178;52.188;5.598;2023-02-25T18:59:39;7.45;;;1.63;;
19137;SDS011;68178;52.188;5.598;2023-02-25T19:02:09;9.48;;;1.92;;
19137;SDS011;68178;52.188;5.598;2023-02-25T19:04:36;7.20;;;1.88;;
19137;SDS011;68178;52.188;5.598;2023-02-25T19:07:07;7.05;;;2.20;;
19137;SDS011;68178;52.188;5.598;2023-02-25T19:09:33;7.57;;;2.22;;
19137;SDS011;68178;52.188;5.598;2023-02-25T19:11:59;4.43;;;2.17;;
19137;SDS011;68178;52.188;5.598;2023-02-25T19:14:25;4.82;;;2.17;;
19137;SDS011;68178;52.188;5.598;2023-02-25T19:16:51;9.40;;;2.53;;
19137;SDS011;68178;52.188;5.598;2023-02-25T19:19:17;6.32;;;2.50;;
19137;SDS011;68178;52.188;5.598;2023-02-25T19:21:43;11.60;;;2.67;;
19137;SDS011;68178;52.188;5.598;2023-02-25T19:24:11;5.65;;;3.28;;
19137;SDS011;68178;52.188;5.598;2023-02-25T19:26:37;6.13;;;3.85;;
19137;SDS011;68178;52.188;5.598;2023-02-25T19:29:03;11.70;;;3.95;;
19137;SDS011;68178;52.188;5.598;2023-02-25T19:31:29;12.95;;;4.13;;
19137;SDS011;68178;52.188;5.598;2023-02-25T19:33:55;9.82;;;3.67;;
19137;SDS011;68178;52.188;5.598;2023-02-25T19:36:21;14.63;;;3.83;;
19137;SDS011;68178;52.188;5.598;2023-02-25T19:38:47;11.60;;;3.88;;
19137;SDS011;68178;52.188;5.598;2023-02-25T19:41:13;10.07;;;3.42;;
19137;SDS011;68178;52.188;5.598;2023-02-25T19:43:39;10.15;;;3.75;;
19137;SDS011;68178;52.188;5.598;2023-02-25T19:46:06;11.52;;;4.60;;
19137;SDS011;68178;52.188;5.598;2023-02-25T19:48:32;6.85;;;3.97;;
19137;SDS011;68178;52.188;5.598;2023-02-25T19:50:58;12.35;;;4.25;;
19137;SDS011;68178;52.188;5.598;2023-02-25T19:53:29;8.50;;;3.58;;
19137;SDS011;68178;52.188;5.598;2023-02-25T19:55:55;8.40;;;3.75;;
19137;SDS011;68178;52.188;5.598;2023-02-25T19:58:21;8.23;;;3.10;;
19137;SDS011;68178;52.188;5.598;2023-02-25T20:00:48;4.80;;;2.70;;
19137;SDS011;68178;52.188;5.598;2023-02-25T20:03:14;12.10;;;2.60;;
19137;SDS011;68178;52.188;5.598;2023-02-25T20:05:40;9.90;;;3.55;;
19137;SDS011;68178;52.188;5.598;2023-02-25T20:08:06;6.72;;;2.38;;
19137;SDS011;68178;52.188;5.598;2023-02-25T20:10:32;6.65;;;2.63;;
19137;SDS011;68178;52.188;5.598;2023-02-25T20:12:58;9.18;;;2.83;;
19137;SDS011;68178;52.188;5.598;2023-02-25T20:15:24;13.35;;;3.17;;
19137;SDS011;68178;52.188;5.598;2023-02-25T20:17:50;8.00;;;2.25;;
19137;SDS011;68178;52.188;5.598;2023-02-25T20:20:19;10.68;;;2.60;;
19137;SDS011;68178;52.188;5.598;2023-02-25T20:22:46;9.30;;;2.97;;
19137;SDS011;68178;52.188;5.598;2023-02-25T20:25:15;7.88;;;2.92;;
19137;SDS011;68178;52.188;5.598;2023-02-25T20:27:41;9.73;;;2.60;;
19137;SDS011;68178;52.188;5.598;2023-02-25T20:30:08;9.38;;;2.50;;
19137;SDS011;68178;52.188;5.598;2023-02-25T20:32:35;7.05;;;2.90;;
19137;SDS011;68178;52.188;5.598;2023-02-25T20:35:02;6.68;;;2.72;;
19137;SDS011;68178;52.188;5.598;2023-02-25T20:37:31;9.45;;;3.67;;
19137;SDS011;68178;52.188;5.598;2023-02-25T20:40:01;8.50;;;2.65;;
19137;SDS011;68178;52.188;5.598;2023-02-25T20:42:31;6.65;;;2.50;;
19137;SDS011;68178;52.188;5.598;2023-02-25T20:44:58;7.93;;;2.72;;
19137;SDS011;68178;52.188;5.598;2023-02-25T20:47:25;6.30;;;2.35;;
19137;SDS011;68178;52.188;5.598;2023-02-25T20:49:52;10.27;;;2.42;;
19137;SDS011;68178;52.188;5.598;2023-02-25T20:52:18;7.63;;;2.28;;
19137;SDS011;68178;52.188;5.598;2023-02-25T20:54:44;8.07;;;2.42;;
19137;SDS011;68178;52.188;5.598;2023-02-25T20:57:11;7.88;;;3.08;;
19137;SDS011;68178;52.188;5.598;2023-02-25T20:59:38;8.18;;;2.45;;
19137;SDS011;68178;52.188;5.598;2023-02-25T21:02:04;7.82;;;2.35;;
19137;SDS011;68178;52.188;5.598;2023-02-25T21:04:30;7.13;;;2.95;;
19137;SDS011;68178;52.188;5.598;2023-02-25T21:06:56;5.47;;;2.25;;
19137;SDS011;68178;52.188;5.598;2023-02-25T21:09:23;9.05;;;2.78;;
19137;SDS011;68178;52.188;5.598;2023-02-25T21:11:49;9.15;;;2.28;;
19137;SDS011;68178;52.188;5.598;2023-02-25T21:14:15;7.43;;;2.60;;
19137;SDS011;68178;52.188;5.598;2023-02-25T21:16:40;6.35;;;3.25;;
19137;SDS011;68178;52.188;5.598;2023-02-25T21:19:09;7.43;;;3.13;;
19137;SDS011;68178;52.188;5.598;2023-02-25T21:21:36;12.30;;;3.63;;
19137;SDS011;68178;52.188;5.598;2023-02-25T21:24:02;7.80;;;3.28;;
19137;SDS011;68178;52.188;5.598;2023-02-25T21:26:28;10.98;;;4.22;;
19137;SDS011;68178;52.188;5.598;2023-02-25T21:28:54;10.80;;;3.60;;
19137;SDS011;68178;52.188;5.598;2023-02-25T21:31:20;11.45;;;5.40;;
19137;SDS011;68178;52.188;5.598;2023-02-25T21:33:46;11.90;;;6.70;;
19137;SDS011;68178;52.188;5.598;2023-02-25T21:36:12;10.23;;;5.35;;
19137;SDS011;68178;52.188;5.598;2023-02-25T21:38:38;11.23;;;5.07;;
19137;SDS011;68178;52.188;5.598;2023-02-25T21:41:10;11.65;;;3.05;;
19137;SDS011;68178;52.188;5.598;2023-02-25T21:43:37;10.13;;;3.33;;
19137;SDS011;68178;52.188;5.598;2023-02-25T21:46:05;12.30;;;4.03;;
19137;SDS011;68178;52.188;5.598;2023-02-25T21:48:31;10.95;;;3.70;;
19137;SDS011;68178;52.188;5.598;2023-02-25T21:50:58;10.20;;;4.43;;
19137;SDS011;68178;52.188;5.598;2023-02-25T21:53:24;5.32;;;2.70;;
19137;SDS011;68178;52.188;5.598;2023-02-25T21:55:52;6.68;;;3.95;;
19137;SDS011;68178;52.188;5.598;2023-02-25T21:58:18;10.93;;;3.25;;
19137;SDS011;68178;52.188;5.598;2023-02-25T22:00:44;7.78;;;3.28;;
19137;SDS011;68178;52.188;5.598;2023-02-25T22:03:10;10.27;;;4.25;;
19137;SDS011;68178;52.188;5.598;2023-02-25T22:05:36;13.00;;;4.18;;
19137;SDS011;68178;52.188;5.598;2023-02-25T22:08:02;7.97;;;3.53;;
19137;SDS011;68178;52.188;5.598;2023-02-25T22:10:29;7.95;;;4.60;;
19137;SDS011;68178;52.188;5.598;2023-02-25T22:12:55;11.00;;;4.18;;
19137;SDS011;68178;52.188;5.598;2023-02-25T22:15:23;7.03;;;3.95;;
19137;SDS011;68178;52.188;5.598;2023-02-25T22:17:49;10.38;;;5.68;;
19137;SDS011;68178;52.188;5.598;2023-02-25T22:20:15;12.85;;;7.95;;
19137;SDS011;68178;52.188;5.598;2023-02-25T22:22:41;14.88;;;8.85;;
19137;SDS011;68178;52.188;5.598;2023-02-25T22:25:07;14.25;;;6.05;;
19137;SDS011;68178;52.188;5.598;2023-02-25T22:27:33;10.25;;;5.88;;
19137;SDS011;68178;52.188;5.598;2023-02-25T22:29:59;6.28;;;3.53;;
19137;SDS011;68178;52.188;5.598;2023-02-25T22:32:25;12.13;;;3.50;;
19137;SDS011;68178;52.188;5.598;2023-02-25T22:34:51;10.25;;;4.38;;
19137;SDS011;68178;52.188;5.598;2023-02-25T22:37:17;7.00;;;3.88;;
19137;SDS011;68178;52.188;5.598;2023-02-25T22:39:43;8.02;;;4.15;;
19137;SDS011;68178;52.188;5.598;2023-02-25T22:42:09;7.38;;;3.85;;
19137;SDS011;68178;52.188;5.598;2023-02-25T22:44:35;14.02;;;4.80;;
19137;SDS011;68178;52.188;5.598;2023-02-25T22:47:01;11.27;;;4.25;;
19137;SDS011;68178;52.188;5.598;2023-02-25T22:49:27;11.02;;;4.57;;
19137;SDS011;68178;52.188;5.598;2023-02-25T22:51:53;9.52;;;3.85;;
19137;SDS011;68178;52.188;5.598;2023-02-25T22:54:18;15.52;;;4.28;;
19137;SDS011;68178;52.188;5.598;2023-02-25T22:56:45;11.57;;;4.43;;
19137;SDS011;68178;52.188;5.598;2023-02-25T22:59:12;16.45;;;5.53;;
19137;SDS011;68178;52.188;5.598;2023-02-25T23:01:38;9.88;;;4.82;;
19137;SDS011;68178;52.188;5.598;2023-02-25T23:04:05;9.52;;;4.40;;
19137;SDS011;68178;52.188;5.598;2023-02-25T23:06:34;11.75;;;4.28;;
19137;SDS011;68178;52.188;5.598;2023-02-25T23:09:00;14.57;;;4.10;;
19137;SDS011;68178;52.188;5.598;2023-02-25T23:11:27;10.63;;;4.30;;
19137;SDS011;68178;52.188;5.598;2023-02-25T23:13:55;14.05;;;4.50;;
19137;SDS011;68178;52.188;5.598;2023-02-25T23:18:48;10.68;;;4.53;;
19137;SDS011;68178;52.188;5.598;2023-02-25T23:21:15;8.98;;;3.97;;
19137;SDS011;68178;52.188;5.598;2023-02-25T23:23:43;12.05;;;4.15;;
19137;SDS011;68178;52.188;5.598;2023-02-25T23:26:11;8.45;;;3.63;;
19137;SDS011;68178;52.188;5.598;2023-02-25T23:28:37;9.57;;;3.92;;
19137;SDS011;68178;52.188;5.598;2023-02-25T23:31:04;6.18;;;3.05;;
19137;SDS011;68178;52.188;5.598;2023-02-25T23:33:30;9.93;;;4.05;;
19137;SDS011;68178;52.188;5.598;2023-02-25T23:35:56;10.50;;;3.65;;
19137;SDS011;68178;52.188;5.598;2023-02-25T23:38:23;5.35;;;3.45;;
19137;SDS011;68178;52.188;5.598;2023-02-25T23:40:49;8.00;;;3.13;;
19137;SDS011;68178;52.188;5.598;2023-02-25T23:43:15;9.85;;;3.28;;
19137;SDS011;68178;52.188;5.598;2023-02-25T23:45:41;8.27;;;2.70;;
19137;SDS011;68178;52.188;5.598;2023-02-25T23:48:07;8.68;;;2.80;;
19137;SDS011;68178;52.188;5.598;2023-02-25T23:50:33;5.85;;;2.58;;
19137;SDS011;68178;52.188;5.598;2023-02-25T23:52:59;11.05;;;2.60;;
19137;SDS011;68178;52.188;5.598;2023-02-25T23:55:25;5.45;;;2.53;;
19137;SDS011;68178;52.188;5.598;2023-02-25T23:57:53;5.35;;;2.47;;
